Time;durP1;ratioP1;P1;durP2;ratioP2;P2;SDS_P1;SDS_P2;PMS_P1;PMS_P2;Temp;Humidity;BMP_temperature;BMP_pressure;BME280_temperature;BME280_humidity;BME280_pressure;Samples;Min_cycle;Max_cycle;Signal;HPM_P1;HPM_P2
2022/06/08 00:00:01;;;;;;;6.70;5.70;;;;;;;18.57;64.45;100493.31;683163;28;1201;-80
2022/06/08 00:00:25;;;;;;;5.88;5.28;;;;;;;18.50;64.48;100471.34;685410;28;1160;-81
2022/06/08 00:00:49;;;;;;;6.15;5.55;;;;;;;18.47;64.62;100466.09;686266;28;1030;-80
2022/06/08 00:01:14;;;;;;;6.30;5.70;;;;;;;18.47;64.58;100463.47;682877;28;1520;-79
2022/06/08 00:01:37;;;;;;;6.32;5.72;;;;;;;18.46;64.42;100470.53;682284;29;879;-80
2022/06/08 00:01:58;;;;;;;6.20;5.60;;;;;;;18.47;64.57;100476.66;684282;28;1045;-80
2022/06/08 00:02:21;;;;;;;6.57;5.93;;;;;;;18.52;64.57;100480.16;686279;28;1361;-80
2022/06/08 00:02:44;;;;;;;6.80;6.10;;;;;;;18.44;64.59;100467.00;685558;28;906;-81
2022/06/08 00:03:13;;;;;;;6.80;5.88;;;;;;;18.39;64.61;100467.94;687061;28;1221;-80
2022/06/08 00:03:45;;;;;;;6.20;5.60;;;;;;;18.44;64.91;100482.84;685593;28;884;-80
2022/06/08 00:04:09;;;;;;;7.03;5.90;;;;;;;18.37;64.83;100470.59;685527;28;1175;-80
2022/06/08 00:04:30;;;;;;;7.90;6.10;;;;;;;18.36;64.74;100472.38;685289;28;1350;-80
2022/06/08 00:04:50;;;;;;;7.30;6.00;;;;;;;18.36;64.93;100477.66;684606;28;1236;-80
2022/06/08 00:05:12;;;;;;;6.45;5.85;;;;;;;18.35;64.87;100481.19;688172;28;1196;-80
2022/06/08 00:05:33;;;;;;;6.43;5.82;;;;;;;18.32;65.12;100481.19;685409;28;1274;-80
2022/06/08 00:05:53;;;;;;;6.90;6.20;;;;;;;18.32;64.96;100480.34;680120;29;1245;-80
2022/06/08 00:06:15;;;;;;;6.88;6.18;;;;;;;18.34;64.92;100479.41;684968;28;1298;-81
2022/06/08 00:06:36;;;;;;;7.00;6.30;;;;;;;18.31;64.94;100481.22;685492;28;1092;-81
2022/06/08 00:06:57;;;;;;;6.72;6.03;;;;;;;18.27;65.24;100468.94;682802;28;1401;-80
2022/06/08 00:07:17;;;;;;;6.97;6.30;;;;;;;18.24;65.13;100472.47;688137;28;1301;-79
2022/06/08 00:07:38;;;;;;;6.90;6.20;;;;;;;18.30;65.03;100480.34;685371;28;1177;-80
2022/06/08 00:07:59;;;;;;;7.63;6.80;;;;;;;18.32;64.95;100483.84;685455;28;1157;-80
2022/06/08 00:08:20;;;;;;;7.35;6.50;;;;;;;18.30;65.08;100471.53;682725;28;1166;-80
2022/06/08 00:08:41;;;;;;;7.47;6.70;;;;;;;18.28;65.15;100475.97;682694;29;1062;-80
2022/06/08 00:09:02;;;;;;;7.20;6.10;;;;;;;18.29;65.18;100478.59;693360;28;1344;-80
2022/06/08 00:09:23;;;;;;;7.78;6.30;;;;;;;18.18;65.25;100460.19;690785;28;1312;-79
2022/06/08 00:09:43;;;;;;;7.88;6.25;;;;;;;18.24;65.24;100474.25;682318;28;1125;-80
2022/06/08 00:10:06;;;;;;;7.13;6.35;;;;;;;18.18;65.18;100470.75;685324;28;1182;-80
2022/06/08 00:10:26;;;;;;;6.80;6.10;;;;;;;18.18;65.20;100475.16;685358;28;981;-80
2022/06/08 00:10:47;;;;;;;6.55;5.85;;;;;;;18.20;65.26;100470.75;684032;28;1380;-80
2022/06/08 00:11:09;;;;;;;6.90;6.20;;;;;;;18.19;65.27;100471.66;681118;28;1160;-81
2022/06/08 00:11:29;;;;;;;7.40;6.55;;;;;;;18.12;65.29;100464.63;680025;29;1385;-80
2022/06/08 00:11:51;;;;;;;8.10;6.50;;;;;;;18.11;65.24;100470.78;679930;29;1054;-80
2022/06/08 00:12:12;;;;;;;7.90;6.50;;;;;;;18.15;65.36;100475.19;685224;28;1401;-80
2022/06/08 00:12:32;;;;;;;8.25;6.20;;;;;;;18.08;65.44;100459.34;687993;28;1531;-79
2022/06/08 00:12:53;;;;;;;7.80;6.40;;;;;;;18.12;65.70;100469.91;682985;28;2022;-80
2022/06/08 00:13:14;;;;;;;7.65;6.43;;;;;;;18.12;65.42;100477.84;682718;28;2267;-80
2022/06/08 00:13:36;;;;;;;7.10;6.40;;;;;;;18.16;65.47;100476.94;682718;28;1145;-80
2022/06/08 00:13:57;;;;;;;6.82;6.20;;;;;;;18.13;65.43;100476.94;683486;28;1055;-80
2022/06/08 00:14:18;;;;;;;6.82;6.13;;;;;;;18.02;65.49;100459.41;679159;29;1034;-80
2022/06/08 00:14:39;;;;;;;6.60;6.00;;;;;;;18.01;65.56;100457.66;677071;29;852;-79
2022/06/08 00:15:00;;;;;;;6.95;6.20;;;;;;;18.14;65.60;100478.69;684549;28;1363;-80
2022/06/08 00:15:21;;;;;;;7.30;6.43;;;;;;;18.04;65.55;100462.03;682347;29;1344;-80
2022/06/08 00:15:42;;;;;;;7.80;6.80;;;;;;;18.04;65.64;100460.28;685453;28;937;-80
2022/06/08 00:16:04;;;;;;;7.35;6.63;;;;;;;18.01;65.39;100459.44;685325;28;1424;-80
2022/06/08 00:16:25;;;;;;;7.28;6.25;;;;;;;18.03;65.51;100460.28;682637;28;1438;-80
2022/06/08 00:16:46;;;;;;;8.70;6.10;;;;;;;18.07;65.56;100469.97;682412;28;1128;-79
2022/06/08 00:17:07;;;;;;;8.27;6.07;;;;;;;18.03;65.57;100466.47;688129;28;1260;-80
2022/06/08 00:17:27;;;;;;;7.22;6.20;;;;;;;18.05;65.54;100469.97;684648;28;1318;-80
2022/06/08 00:17:48;;;;;;;6.82;6.03;;;;;;;18.04;65.75;100468.22;688131;28;1164;-79
2022/06/08 00:18:10;;;;;;;7.45;6.18;;;;;;;17.97;65.63;100466.50;688119;28;1180;-80
2022/06/08 00:18:31;;;;;;;8.70;6.85;;;;;;;18.00;65.72;100477.03;682616;29;1365;-80
2022/06/08 00:18:51;;;;;;;7.70;6.90;;;;;;;17.92;65.89;100452.44;686573;28;1224;-79
2022/06/08 00:19:13;;;;;;;8.07;6.97;;;;;;;17.96;65.82;100467.41;687840;28;1254;-80
2022/06/08 00:19:34;;;;;;;7.27;6.57;;;;;;;18.00;65.83;100474.38;684932;28;1132;-80
2022/06/08 00:19:54;;;;;;;7.72;6.90;;;;;;;17.92;65.81;100479.75;682604;28;1128;-80
2022/06/08 00:20:15;;;;;;;7.47;6.68;;;;;;;17.91;65.83;100461.25;682781;28;1092;-80
2022/06/08 00:20:36;;;;;;;8.30;6.80;;;;;;;17.88;65.83;100469.22;682518;29;1763;-79
2022/06/08 00:20:57;;;;;;;8.40;7.10;;;;;;;17.96;65.79;100475.31;684647;28;946;-80
2022/06/08 00:21:18;;;;;;;8.75;7.15;;;;;;;17.88;66.12;100471.84;682851;28;1258;-80
2022/06/08 00:21:39;;;;;;;7.40;6.60;;;;;;;17.89;65.84;100455.13;685138;28;1471;-80
2022/06/08 00:22:01;;;;;;;7.40;6.50;;;;;;;17.91;66.07;100474.47;685181;28;1319;-80
2022/06/08 00:22:22;;;;;;;7.70;6.90;;;;;;;17.88;65.89;100471.84;684546;28;1217;-79
2022/06/08 00:22:43;;;;;;;8.50;7.25;;;;;;;17.90;66.31;100485.91;685319;28;1182;-80
2022/06/08 00:23:04;;;;;;;8.65;7.40;;;;;;;17.92;66.12;100481.50;688040;28;1311;-81
2022/06/08 00:23:25;;;;;;;9.20;7.50;;;;;;;17.93;66.24;100475.31;685274;28;1445;-80
2022/06/08 00:23:47;;;;;;;8.80;7.60;;;;;;;17.93;66.25;100472.69;682870;28;1061;-81
2022/06/08 00:24:07;;;;;;;8.15;7.18;;;;;;;17.86;66.06;100466.59;688442;28;1289;-80
2022/06/08 00:24:28;;;;;;;7.83;7.03;;;;;;;17.85;66.17;100466.59;685188;28;1271;-80
2022/06/08 00:24:49;;;;;;;8.00;7.20;;;;;;;17.84;66.40;100464.84;687154;28;1049;-81
2022/06/08 00:25:12;;;;;;;8.30;7.40;;;;;;;17.82;66.19;100456.91;684604;28;1149;-80
2022/06/08 00:25:33;;;;;;;8.07;7.28;;;;;;;17.86;66.22;100463.06;682276;29;1371;-79
2022/06/08 00:25:53;;;;;;;8.05;7.25;;;;;;;17.83;66.06;100457.81;680425;29;1158;-80
2022/06/08 00:26:14;;;;;;;8.30;7.50;;;;;;;17.81;66.25;100456.06;682787;28;1072;-80
2022/06/08 00:26:36;;;;;;;8.40;7.50;;;;;;;17.93;66.14;100480.59;679952;29;1420;-80
2022/06/08 00:26:57;;;;;;;8.10;7.30;;;;;;;17.85;66.28;100461.31;685209;28;1444;-80
2022/06/08 00:27:18;;;;;;;7.33;6.63;;;;;;;17.91;66.28;100466.53;685396;28;981;-80
2022/06/08 00:27:40;;;;;;;7.63;6.82;;;;;;;17.90;66.41;100465.66;679995;29;1113;-80
2022/06/08 00:28:00;;;;;;;7.95;7.15;;;;;;;17.90;66.50;100465.66;685361;28;1272;-80
2022/06/08 00:28:22;;;;;;;8.40;7.60;;;;;;;17.90;66.44;100456.88;682704;28;1299;-81
2022/06/08 00:28:42;;;;;;;9.00;7.60;;;;;;;17.94;66.47;100462.13;680111;28;1382;-81
2022/06/08 00:29:04;;;;;;;8.90;7.50;;;;;;;17.91;66.36;100455.97;682350;29;1345;-81
2022/06/08 00:29:25;;;;;;;8.85;7.40;;;;;;;18.00;66.78;100468.25;682319;28;1934;-80
2022/06/08 00:29:48;;;;;;;8.18;7.32;;;;;;;18.01;66.62;100462.94;683046;28;1806;-80
2022/06/08 00:30:10;;;;;;;8.43;7.40;;;;;;;17.97;66.60;100455.94;685260;28;1236;-80
2022/06/08 00:30:31;;;;;;;9.02;7.70;;;;;;;18.04;66.71;100462.94;689148;28;1412;-80
2022/06/08 00:30:53;;;;;;;9.25;7.68;;;;;;;18.07;66.54;100465.53;684330;28;1549;-81
2022/06/08 00:31:27;;;;;;;9.57;7.93;;;;;;;18.03;66.50;100462.94;688282;28;812;-80
2022/06/08 00:31:48;;;;;;;9.95;8.10;;;;;;;18.05;66.29;100454.13;684456;28;1575;-80
2022/06/08 00:32:10;;;;;;;9.80;7.95;;;;;;;18.10;66.30;100462.00;682765;28;1012;-81
2022/06/08 00:32:30;;;;;;;9.60;8.10;;;;;;;18.06;66.22;100454.97;682738;28;1376;-80
2022/06/08 00:32:51;;;;;;;10.18;8.00;;;;;;;18.12;66.06;100462.00;683960;28;1348;-80
2022/06/08 00:33:12;;;;;;;10.10;8.00;;;;;;;18.06;66.04;100453.22;682643;28;1016;-80
2022/06/08 00:33:33;;;;;;;10.33;7.87;;;;;;;18.09;66.09;100461.09;685163;28;1710;-80
2022/06/08 00:33:54;;;;;;;10.05;8.23;;;;;;;18.11;65.86;100462.84;685422;28;910;-80
2022/06/08 00:34:15;;;;;;;10.18;8.10;;;;;;;18.12;65.93;100465.50;680124;28;1326;-80
2022/06/08 00:34:36;;;;;;;9.60;8.10;;;;;;;18.06;66.03;100461.16;679966;29;1231;-80
2022/06/08 00:34:57;;;;;;;9.38;7.60;;;;;;;18.09;65.93;100466.38;684608;28;1282;-80
2022/06/08 00:35:18;;;;;;;8.95;7.45;;;;;;;18.09;66.02;100466.38;679894;29;1232;-80
2022/06/08 00:35:39;;;;;;;8.70;7.40;;;;;;;18.09;65.83;100466.38;680075;29;1021;-80
2022/06/08 00:36:00;;;;;;;9.07;7.40;;;;;;;18.00;65.84;100455.91;682122;29;1157;-80
2022/06/08 00:36:21;;;;;;;10.02;7.70;;;;;;;18.03;65.98;100463.81;682755;29;1201;-80
2022/06/08 00:36:42;;;;;;;9.93;7.65;;;;;;;17.98;65.97;100455.06;682630;29;1203;-80
2022/06/08 00:37:03;;;;;;;9.45;7.88;;;;;;;17.98;65.93;100460.34;682266;29;1185;-81
2022/06/08 00:37:24;;;;;;;8.82;7.93;;;;;;;17.95;66.04;100457.72;681902;29;1114;-81
2022/06/08 00:37:46;;;;;;;9.23;8.32;;;;;;;18.01;66.04;100462.06;682967;28;1396;-80
2022/06/08 00:38:06;;;;;;;9.13;8.23;;;;;;;17.96;66.10;100464.75;685359;28;1120;-80
2022/06/08 00:38:27;;;;;;;8.98;7.85;;;;;;;17.91;66.31;100455.97;684326;28;1718;-80
2022/06/08 00:38:48;;;;;;;9.23;7.80;;;;;;;17.88;66.07;100456.03;684341;28;1053;-81
2022/06/08 00:39:09;;;;;;;9.50;7.88;;;;;;;17.85;66.28;100456.03;688243;28;1396;-80
2022/06/08 00:39:29;;;;;;;8.82;7.80;;;;;;;17.84;66.26;100459.56;685024;28;1000;-81
2022/06/08 00:39:50;;;;;;;8.38;7.50;;;;;;;17.87;66.17;100459.53;683640;28;1037;-80
2022/06/08 00:40:14;;;;;;;9.85;7.75;;;;;;;17.87;66.24;100459.53;684901;28;1094;-81
2022/06/08 00:40:58;;;;;;;10.18;7.65;;;;;;;17.81;66.46;100456.06;684962;28;1374;-80
2022/06/08 00:41:44;;;;;;;10.77;7.65;;;;;;;17.74;66.61;100454.34;685084;28;1475;-79
2022/06/08 00:42:08;;;;;;;9.70;8.00;;;;;;;17.75;66.67;100455.19;687631;28;1304;-80
2022/06/08 00:42:30;;;;;;;10.10;8.83;;;;;;;17.83;66.65;100468.38;684303;28;1328;-80
2022/06/08 00:42:51;;;;;;;11.13;9.38;;;;;;;17.81;66.79;100466.63;685314;28;1027;-80
2022/06/08 00:43:13;;;;;;;11.55;9.57;;;;;;;17.77;66.79;100459.59;683101;28;1298;-80
2022/06/08 00:43:35;;;;;;;10.52;8.95;;;;;;;17.80;66.91;100461.34;682685;29;946;-80
2022/06/08 00:43:57;;;;;;;9.88;8.70;;;;;;;17.83;66.78;100457.81;681754;29;967;-81
2022/06/08 00:44:39;;;;;;;10.48;8.57;;;;;;;17.93;66.85;100462.13;682707;28;1396;-80
2022/06/08 00:45:07;;;;;;;15.80;8.82;;;;;;;17.98;66.98;100476.16;685059;28;1354;-80
2022/06/08 00:45:28;;;;;;;12.13;9.13;;;;;;;17.92;66.87;100461.25;685265;28;1213;-81
2022/06/08 00:45:48;;;;;;;12.30;9.65;;;;;;;18.00;66.89;100463.81;686117;28;1164;-81
2022/06/08 00:46:10;;;;;;;11.57;9.88;;;;;;;18.02;66.96;100474.38;689791;28;1256;-81
2022/06/08 00:46:31;;;;;;;11.90;9.80;;;;;;;18.01;66.80;100459.44;685389;28;1214;-81
2022/06/08 00:46:53;;;;;;;12.05;9.63;;;;;;;18.00;66.82;100458.56;678644;29;1274;-81
2022/06/08 00:47:19;;;;;;;12.40;9.73;;;;;;;17.99;66.98;100456.81;680150;29;1183;-81
2022/06/08 00:47:48;;;;;;;11.70;9.70;;;;;;;18.06;66.88;100461.16;682504;29;1230;-82
2022/06/08 00:48:09;;;;;;;11.23;9.60;;;;;;;18.06;66.76;100450.59;685295;28;1143;-81
2022/06/08 00:48:36;;;;;;;11.57;9.55;;;;;;;18.10;66.61;100456.72;684539;28;1427;-81
2022/06/08 00:49:07;;;;;;;13.50;10.27;;;;;;;18.12;66.73;100451.44;682040;29;1316;-81
2022/06/08 00:49:37;;;;;;;14.70;10.60;;;;;;;18.12;66.70;100449.66;682270;28;2024;-80
2022/06/08 00:50:24;;;;;;;14.10;10.32;;;;;;;18.17;66.52;100450.53;686720;28;1194;-81
2022/06/08 00:50:49;;;;;;;15.55;10.80;;;;;;;18.25;66.26;100461.00;681300;28;1227;-81
2022/06/08 00:51:11;;;;;;;14.75;11.05;;;;;;;18.22;66.21;100455.78;685429;28;1138;-81
2022/06/08 00:51:32;;;;;;;13.40;10.88;;;;;;;18.26;66.33;100460.13;682395;29;961;-81
2022/06/08 00:51:54;;;;;;;12.88;10.93;;;;;;;18.23;66.06;100454.88;684117;28;1258;-82
2022/06/08 00:52:15;;;;;;;13.15;10.63;;;;;;;18.27;66.03;100458.38;682677;28;991;-81
2022/06/08 00:52:36;;;;;;;14.30;10.70;;;;;;;18.26;66.12;100457.47;685306;28;1136;-81
2022/06/08 00:52:58;;;;;;;14.20;10.65;;;;;;;18.22;66.04;100442.56;682716;28;1210;-81
2022/06/08 00:53:26;;;;;;;14.13;10.75;;;;;;;18.26;66.28;100440.78;684368;28;1392;-80
2022/06/08 00:53:59;;;;;;;13.18;10.80;;;;;;;18.27;65.86;100448.69;685949;28;1500;-80
2022/06/08 00:54:27;;;;;;;12.57;10.57;;;;;;;18.32;66.18;100461.84;690578;28;1207;-81
2022/06/08 00:54:54;;;;;;;14.10;10.70;;;;;;;18.41;66.12;100456.47;683469;28;1206;-80
2022/06/08 00:55:18;;;;;;;14.65;10.95;;;;;;;18.37;66.06;100454.75;685143;28;1419;-80
2022/06/08 00:55:41;;;;;;;14.50;10.95;;;;;;;18.36;66.16;100447.72;682484;29;1473;-81
2022/06/08 00:56:06;;;;;;;12.45;10.95;;;;;;;18.38;66.09;100456.47;682482;29;1217;-80
2022/06/08 00:56:36;;;;;;;13.30;11.27;;;;;;;18.40;65.92;100448.56;679914;29;1720;-80
2022/06/08 00:57:29;;;;;;;12.82;10.80;;;;;;;18.39;66.34;100446.81;682862;28;1270;-80
2022/06/08 00:57:56;;;;;;;12.13;10.48;;;;;;;18.39;66.06;100433.59;685730;28;1239;-81
2022/06/08 00:58:24;;;;;;;13.52;10.80;;;;;;;18.42;65.96;100444.13;684904;28;1318;-81
2022/06/08 00:58:46;;;;;;;14.75;11.00;;;;;;;18.40;65.95;100435.34;682249;29;1293;-80
2022/06/08 00:59:08;;;;;;;14.70;11.00;;;;;;;18.43;66.03;100437.97;682592;29;1250;-80
2022/06/08 00:59:29;;;;;;;15.10;11.02;;;;;;;18.45;65.90;100447.63;687677;28;1192;-80
2022/06/08 01:00:12;;;;;;;15.37;11.30;;;;;;;18.42;65.86;100436.19;689474;28;1180;-81
2022/06/08 01:00:39;;;;;;;14.15;11.20;;;;;;;18.47;65.80;100451.13;682614;29;839;-81
2022/06/08 01:01:00;;;;;;;15.60;11.68;;;;;;;18.42;65.70;100436.19;687799;28;1335;-80
2022/06/08 01:01:21;;;;;;;15.48;11.45;;;;;;;18.39;65.99;100446.81;682777;29;1112;-81
2022/06/08 01:01:42;;;;;;;15.32;11.90;;;;;;;18.43;65.87;100449.41;687882;28;1335;-81
2022/06/08 01:02:03;;;;;;;15.27;11.88;;;;;;;18.40;65.86;100443.28;679518;29;1391;-80
2022/06/08 01:02:26;;;;;;;14.73;12.05;;;;;;;18.43;65.85;100451.19;682523;28;1259;-81
2022/06/08 01:02:49;;;;;;;14.27;11.77;;;;;;;18.34;65.81;100445.06;682236;29;1150;-80
2022/06/08 01:03:15;;;;;;;13.90;11.38;;;;;;;18.39;65.82;100449.44;682698;29;1096;-80
2022/06/08 01:03:41;;;;;;;15.52;11.55;;;;;;;18.36;65.89;100431.84;685184;28;1152;-80
2022/06/08 01:04:13;;;;;;;15.32;11.60;;;;;;;18.42;65.88;100449.41;685206;28;1255;-80
2022/06/08 01:04:36;;;;;;;15.55;11.35;;;;;;;18.36;66.08;100440.69;680755;28;951;-80
2022/06/08 01:05:16;;;;;;;15.48;11.55;;;;;;;18.42;65.97;100457.34;687228;28;1342;-80
2022/06/08 01:05:47;;;;;;;14.50;12.05;;;;;;;18.30;66.12;100424.88;685357;28;1009;-81
2022/06/08 01:06:21;;;;;;;15.07;12.30;;;;;;;18.34;65.81;100442.44;680936;28;1153;-80
2022/06/08 01:06:44;;;;;;;15.68;11.73;;;;;;;18.40;65.96;100451.19;684044;28;1584;-79
2022/06/08 01:07:06;;;;;;;15.40;11.70;;;;;;;18.41;66.03;100450.31;682552;28;1195;-80
2022/06/08 01:07:27;;;;;;;15.18;11.60;;;;;;;18.39;65.90;100452.97;682750;29;1055;-80
2022/06/08 01:07:50;;;;;;;15.02;11.70;;;;;;;18.40;66.19;100453.84;677943;29;1100;-80
2022/06/08 01:08:38;;;;;;;14.55;11.65;;;;;;;18.42;66.03;100452.03;685276;28;1223;-80
2022/06/08 01:09:00;;;;;;;13.13;10.52;;;;;;;18.35;66.22;100436.28;687434;28;1289;-81
2022/06/08 01:09:36;;;;;;;14.15;11.10;;;;;;;18.35;66.06;100427.47;683156;28;1247;-81
2022/06/08 01:09:57;;;;;;;14.75;11.80;;;;;;;18.42;65.96;100442.38;681834;28;1361;-81
2022/06/08 01:10:22;;;;;;;14.83;11.90;;;;;;;18.46;65.95;100445.84;679902;28;1180;-80
2022/06/08 01:10:47;;;;;;;13.75;11.75;;;;;;;18.45;65.92;100454.69;685267;28;1379;-81
2022/06/08 01:11:21;;;;;;;13.85;11.98;;;;;;;18.41;65.87;100429.16;683997;28;1036;-80
2022/06/08 01:11:44;;;;;;;14.60;12.00;;;;;;;18.39;65.53;100431.84;682638;29;970;-81
2022/06/08 01:12:17;;;;;;;14.80;11.93;;;;;;;18.44;65.95;100443.22;685083;28;1220;-80
2022/06/08 01:12:43;;;;;;;14.52;12.05;;;;;;;18.43;65.95;100435.34;685199;28;1300;-80
2022/06/08 01:13:05;;;;;;;14.07;11.77;;;;;;;18.40;65.82;100432.69;679588;29;1816;-80
2022/06/08 01:13:29;;;;;;;14.48;12.00;;;;;;;18.39;65.88;100425.69;679929;29;1178;-80
2022/06/08 01:13:52;;;;;;;14.52;11.93;;;;;;;18.47;65.90;100434.41;683706;28;1198;-80
2022/06/08 01:14:15;;;;;;;13.63;11.52;;;;;;;18.51;65.83;100446.69;685365;28;1057;-80
2022/06/08 01:14:36;;;;;;;13.88;11.60;;;;;;;18.51;65.86;100444.06;683895;28;1774;-80
2022/06/08 01:14:58;;;;;;;14.15;10.85;;;;;;;18.46;65.84;100437.94;687342;28;1091;-80
2022/06/08 01:15:22;;;;;;;13.90;10.80;;;;;;;18.48;65.99;100439.69;690754;28;1116;-80
2022/06/08 01:15:43;;;;;;;13.88;11.00;;;;;;;18.46;65.89;100437.94;685291;28;1146;-80
2022/06/08 01:16:11;;;;;;;13.73;11.18;;;;;;;18.45;65.96;100436.19;683092;28;1125;-80
2022/06/08 01:16:32;;;;;;;13.82;11.25;;;;;;;18.45;65.82;100441.47;682550;29;1320;-80
2022/06/08 01:17:01;;;;;;;14.57;11.50;;;;;;;18.44;65.84;100434.44;688177;28;1188;-80
2022/06/08 01:17:22;;;;;;;14.38;11.73;;;;;;;18.41;65.80;100430.06;685316;28;948;-80
2022/06/08 01:17:48;;;;;;;15.32;11.95;;;;;;;18.42;65.86;100433.56;682764;28;1100;-80
2022/06/08 01:18:10;;;;;;;15.90;12.20;;;;;;;18.39;65.92;100425.69;679885;29;1263;-80
2022/06/08 01:18:32;;;;;;;14.75;12.25;;;;;;;18.39;65.78;100425.69;685105;28;1136;-80
2022/06/08 01:18:54;;;;;;;13.23;11.82;;;;;;;18.42;65.90;100441.47;682600;28;1346;-80
2022/06/08 01:19:16;;;;;;;14.20;12.18;;;;;;;18.40;65.78;100425.66;685337;28;1107;-80
2022/06/08 01:19:39;;;;;;;15.25;12.25;;;;;;;18.48;66.01;100436.16;682169;28;1176;-79
2022/06/08 01:20:02;;;;;;;14.95;12.23;;;;;;;18.47;65.95;100442.31;685113;28;1115;-81
2022/06/08 01:20:28;;;;;;;15.00;12.30;;;;;;;18.41;66.00;100434.44;679112;29;1224;-79
2022/06/08 01:20:55;;;;;;;13.77;11.50;;;;;;;18.41;65.82;100429.16;684551;28;1107;-80
2022/06/08 01:21:20;;;;;;;13.60;11.23;;;;;;;18.46;65.93;100443.22;685189;28;1254;-80
2022/06/08 01:21:46;;;;;;;15.25;11.82;;;;;;;18.47;65.99;100434.41;682822;28;1119;-79
2022/06/08 01:22:17;;;;;;;14.98;12.23;;;;;;;18.41;65.87;100430.06;688050;28;1292;-80
2022/06/08 01:22:47;;;;;;;13.70;11.77;;;;;;;18.36;65.95;100431.84;685814;28;1221;-80
2022/06/08 01:23:08;;;;;;;13.30;11.30;;;;;;;18.41;65.79;100429.16;685153;28;1206;-80
2022/06/08 01:23:30;;;;;;;13.10;11.18;;;;;;;18.32;66.00;100420.44;685251;28;1187;-80
2022/06/08 01:23:55;;;;;;;13.07;11.27;;;;;;;18.34;65.81;100423.94;685312;28;1172;-80
2022/06/08 01:24:16;;;;;;;13.02;11.55;;;;;;;18.40;65.92;100435.34;679810;29;1197;-80
2022/06/08 01:24:45;;;;;;;14.18;12.18;;;;;;;18.33;65.74;100424.84;682588;29;1256;-80
2022/06/08 01:25:09;;;;;;;14.27;12.00;;;;;;;18.31;65.85;100423.13;682462;28;1322;-81
2022/06/08 01:26:14;;;;;;;13.90;11.73;;;;;;;18.29;65.88;100430.16;685148;28;1220;-80
2022/06/08 01:26:44;;;;;;;14.93;12.40;;;;;;;18.27;65.88;100438.13;684924;28;1254;-81
2022/06/08 01:27:25;;;;;;;16.52;13.23;;;;;;;18.25;65.96;100434.59;683963;28;1743;-80
2022/06/08 01:27:49;;;;;;;16.88;13.73;;;;;;;18.24;65.93;100437.28;684804;28;1244;-80
2022/06/08 01:28:41;;;;;;;16.38;12.88;;;;;;;18.20;66.06;100436.44;687049;28;1552;-80
2022/06/08 01:29:10;;;;;;;18.60;12.60;;;;;;;18.19;65.78;100432.91;684442;28;1190;-80
2022/06/08 01:29:41;;;;;;;20.08;13.60;;;;;;;18.09;66.04;100433.84;685317;28;1987;-80
2022/06/08 01:30:29;;;;;;;17.90;13.20;;;;;;;17.99;66.28;100417.19;687779;28;1217;-80
2022/06/08 01:30:57;;;;;;;15.32;12.73;;;;;;;18.05;66.42;100433.00;683236;28;1258;-80
2022/06/08 01:31:38;;;;;;;16.85;12.85;;;;;;;18.07;66.45;100435.63;682695;28;1216;-80
2022/06/08 01:32:03;;;;;;;18.15;13.27;;;;;;;18.07;66.54;100433.00;686199;28;1377;-80
2022/06/08 01:32:28;;;;;;;16.55;12.68;;;;;;;17.99;66.43;100413.66;685162;28;1304;-80
2022/06/08 01:33:07;;;;;;;16.08;12.57;;;;;;;18.09;66.67;100434.69;684684;28;1256;-80
2022/06/08 01:33:51;;;;;;;16.88;13.32;;;;;;;18.11;66.52;100431.16;687793;28;892;-80
2022/06/08 01:34:31;;;;;;;18.15;13.75;;;;;;;18.13;66.43;100434.69;682712;29;796;-81
2022/06/08 01:35:11;;;;;;;17.08;13.30;;;;;;;18.13;66.49;100429.41;683938;28;1265;-80
2022/06/08 01:35:47;;;;;;;17.25;14.10;;;;;;;18.11;66.31;100425.88;682472;29;2040;-80
2022/06/08 01:36:48;;;;;;;18.05;14.18;;;;;;;18.10;66.33;100435.59;681710;29;1641;-81
2022/06/08 01:37:22;;;;;;;19.33;14.25;;;;;;;18.09;66.17;100431.19;683028;28;1110;-81
2022/06/08 01:38:10;;;;;;;18.83;14.70;;;;;;;18.05;66.31;100426.81;682442;28;1119;-80
2022/06/08 01:38:49;;;;;;;22.35;15.02;;;;;;;18.00;66.33;100421.59;685372;28;886;-81
2022/06/08 01:39:19;;;;;;;20.17;15.00;;;;;;;17.94;66.56;100413.72;688080;28;1004;-80
2022/06/08 01:39:52;;;;;;;21.20;15.23;;;;;;;18.01;66.46;100425.97;682054;29;1251;-80
2022/06/08 01:40:45;;;;;;;19.58;15.15;;;;;;;17.99;66.55;100421.59;685310;28;1127;-80
2022/06/08 01:41:53;;;;;;;19.30;14.75;;;;;;;17.89;66.56;100407.63;679755;29;1369;-81
2022/06/08 01:42:16;;;;;;;22.70;15.65;;;;;;;17.99;66.64;100429.50;690589;28;1020;-80
2022/06/08 01:42:48;;;;;;;21.52;15.70;;;;;;;17.98;66.57;100426.00;681956;28;1662;-80
2022/06/08 01:43:26;;;;;;;19.60;15.35;;;;;;;17.98;66.58;100420.72;679912;29;1350;-80
2022/06/08 01:44:18;;;;;;;22.33;15.80;;;;;;;17.97;66.69;100426.00;683073;28;1270;-81
2022/06/08 01:44:41;;;;;;;20.83;16.20;;;;;;;17.97;66.66;100426.91;681892;29;1324;-80
2022/06/08 01:45:33;;;;;;;22.92;16.67;;;;;;;17.92;66.73;100418.13;682095;28;1809;-81
2022/06/08 01:46:05;;;;;;;23.33;15.80;;;;;;;17.92;66.69;100407.59;689194;28;1220;-80
2022/06/08 01:46:29;;;;;;;21.38;16.40;;;;;;;17.95;66.65;100419.00;682999;28;1191;-80
2022/06/08 01:47:04;;;;;;;20.50;16.50;;;;;;;17.92;66.79;100410.22;683141;28;1416;-80
2022/06/08 01:47:35;;;;;;;20.85;16.08;;;;;;;17.91;66.78;100412.00;682708;28;1210;-80
2022/06/08 01:48:02;;;;;;;23.38;16.08;;;;;;;17.91;67.01;100408.47;682939;28;1289;-80
2022/06/08 01:48:47;;;;;;;24.40;16.80;;;;;;;18.00;66.94;100415.44;681249;29;985;-80
2022/06/08 01:49:08;;;;;;;23.00;17.08;;;;;;;18.00;66.96;100408.38;685086;28;1855;-80
2022/06/08 01:49:38;;;;;;;24.55;17.20;;;;;;;18.04;66.84;100418.03;682204;28;1988;-81
2022/06/08 01:50:18;;;;;;;26.80;17.00;;;;;;;17.97;66.65;100403.16;686261;28;1253;-80
2022/06/08 01:50:42;;;;;;;24.67;16.45;;;;;;;18.03;66.75;100408.38;685248;28;1198;-80
2022/06/08 01:51:27;;;;;;;23.95;16.90;;;;;;;18.01;66.53;100414.56;687733;28;1379;-81
2022/06/08 01:51:54;;;;;;;24.30;17.27;;;;;;;17.99;66.75;100406.63;687645;28;1206;-80
2022/06/08 01:52:38;;;;;;;22.40;16.17;;;;;;;17.97;66.79;100416.34;682464;29;982;-79
2022/06/08 01:53:05;;;;;;;21.02;15.50;;;;;;;17.93;66.72;100418.13;684577;28;1123;-80
2022/06/08 01:53:47;;;;;;;22.85;16.30;;;;;;;17.91;66.57;100413.75;682547;28;1009;-79
2022/06/08 01:54:24;;;;;;;22.63;16.60;;;;;;;17.88;66.71;100413.78;685078;28;1362;-79
2022/06/08 01:54:59;;;;;;;20.92;16.00;;;;;;;17.86;66.83;100407.63;680247;28;1148;-79
2022/06/08 01:55:26;;;;;;;22.98;16.27;;;;;;;17.85;66.89;100408.50;684978;28;1224;-80
2022/06/08 01:55:56;;;;;;;23.60;16.50;;;;;;;17.73;66.92;100393.66;685158;28;1245;-80
2022/06/08 01:56:22;;;;;;;22.92;16.60;;;;;;;17.80;66.99;100406.81;682578;29;1120;-81
2022/06/08 01:57:11;;;;;;;22.90;16.60;;;;;;;17.81;66.80;100413.84;682621;29;861;-80
2022/06/08 01:57:50;;;;;;;24.80;16.38;;;;;;;17.80;67.13;100409.44;680065;28;1265;-79
2022/06/08 01:58:34;;;;;;;24.15;16.90;;;;;;;17.71;66.94;100393.69;682528;28;1148;-80
2022/06/08 01:59:13;;;;;;;22.58;16.88;;;;;;;17.75;66.95;100408.59;682441;29;1028;-80
2022/06/08 01:59:46;;;;;;;24.50;17.02;;;;;;;17.71;67.21;100408.63;684705;28;858;-80
2022/06/08 02:00:10;;;;;;;23.35;16.38;;;;;;;17.73;67.11;100409.50;682458;29;1160;-80
2022/06/08 02:01:02;;;;;;;21.92;16.58;;;;;;;17.67;67.31;100397.22;680533;28;1443;-79
2022/06/08 02:01:28;;;;;;;22.35;17.00;;;;;;;17.69;67.34;100398.06;681438;29;1234;-80
2022/06/08 02:01:59;;;;;;;24.08;17.23;;;;;;;17.78;67.41;100410.34;681148;29;1183;-80
2022/06/08 02:02:31;;;;;;;24.00;17.52;;;;;;;17.75;67.23;100411.22;682436;29;1456;-80
2022/06/08 02:03:07;;;;;;;23.95;18.02;;;;;;;17.76;67.23;100407.69;682406;29;1236;-80
2022/06/08 02:03:41;;;;;;;23.55;17.35;;;;;;;17.74;66.92;100403.31;680325;29;2224;-80
2022/06/08 02:04:27;;;;;;;24.30;17.95;;;;;;;17.73;67.22;100407.75;687472;28;1486;-80
2022/06/08 02:04:54;;;;;;;26.10;18.33;;;;;;;17.70;67.24;100405.09;690589;28;1043;-80
2022/06/08 02:05:28;;;;;;;24.55;18.13;;;;;;;17.67;66.96;100397.22;687918;28;1088;-81
2022/06/08 02:06:06;;;;;;;26.75;18.77;;;;;;;17.68;67.07;100402.50;687798;28;1059;-80